Tayport, United Kingdom
Current Conditions -  °F | °C
As of 9:50 AM on Friday 24 Oct 2014 (Local Time) from EGQL Reporting Station
Broken Clouds Broken Clouds  
Wind Chill: 50°   Ceiling: 6000
Heat Index: 50°   Visibility: 6mi
Dew Point: 45°   Wind: 13mph
Humidity: 82%   Direction: 230°SW
Pressure: 29.74"   Gusts: NA
Location:  56.45°N, 2.88°W
Report Text: EGQL 240850Z AUTO 23011KT 9999 FEW047/// BKN060/// 10/07 Q1007
Loading
Personal Weather Stations






























Interactive Weather Map
Tropical Storm Tracking
New forecast layout! Learn more

10-Day Weather Forecast

Advertisements
Track Severe Weather on mobile